Terminal Aerodrome Forecast
Issued by NWS Topeka, KS

Home | Current Version | Previous Version | Graphics & Text | Print | Product List | Glossary On
Versions: 1 2 3 4 5 6 7 8 9 10 11 12 13 14 15 16 17 18 19 20 21 22 23 24 25
584
FTUS43 KTOP 041737
TAFTOP
TAF
KTOP 041737Z 0418/0518 27009KT P6SM BKN009 OVC012
      TEMPO 0419/0420 SCT008 OVC013
     FM042000 27006KT P6SM SKC
     FM050900 18004KT 5SM BR SKC
      TEMPO 0510/0513 2SM BR
     FM051400 18008KT P6SM SKC=

USA.gov is the U.S. government's official web portal to all federal, state and local government web resources and services.